createdAt,value
2019-05-10T00:00:28.270Z,6.10
2019-05-10T00:01:28.263Z,5.80
2019-05-10T00:02:28.223Z,5.50
2019-05-10T00:03:28.182Z,5.90
2019-05-10T00:04:28.169Z,5.40
2019-05-10T00:05:28.189Z,5.80
2019-05-10T00:06:28.110Z,5.30
2019-05-10T00:07:28.089Z,5.60
2019-05-10T00:08:28.055Z,5.00
2019-05-10T00:09:28.021Z,5.30
2019-05-10T00:10:28.020Z,5.30
2019-05-10T00:11:27.972Z,5.40
2019-05-10T00:12:28.030Z,5.40
2019-05-10T00:13:27.910Z,5.50
2019-05-10T00:14:27.899Z,5.30
2019-05-10T00:15:27.859Z,5.70
2019-05-10T00:16:27.854Z,5.20
2019-05-10T00:17:27.809Z,5.30
2019-05-10T00:18:27.869Z,5.20
2019-05-10T00:19:27.751Z,5.20
2019-05-10T00:20:27.741Z,5.10
2019-05-10T00:21:27.797Z,5.00
2019-05-10T00:22:27.688Z,5.10
2019-05-10T00:23:27.697Z,5.20
2019-05-10T00:24:27.626Z,5.10
2019-05-10T00:25:27.597Z,5.00
2019-05-10T00:26:27.566Z,5.00
2019-05-10T00:27:27.627Z,4.90
2019-05-10T00:28:27.517Z,5.50
2019-05-10T00:29:27.536Z,5.10
2019-05-10T00:30:27.457Z,5.30
2019-05-10T00:31:27.546Z,5.00
2019-05-10T00:32:27.408Z,4.90
2019-05-10T00:33:27.458Z,5.30
2019-05-10T00:34:27.363Z,5.40
2019-05-10T00:35:27.377Z,4.70
2019-05-10T00:36:27.381Z,4.90
2019-05-10T00:37:27.266Z,5.00
2019-05-10T00:38:27.316Z,5.30
2019-05-10T00:39:27.228Z,5.60
2019-05-10T00:40:27.308Z,5.30
2019-05-10T00:41:27.171Z,4.60
2019-05-10T00:42:27.217Z,5.00
2019-05-10T00:43:27.118Z,5.40
2019-05-10T00:44:27.128Z,5.40
2019-05-10T00:45:27.097Z,5.50
2019-05-10T00:46:27.147Z,5.40
2019-05-10T00:47:27.017Z,5.20
2019-05-10T00:48:27.060Z,5.10
2019-05-10T00:49:26.958Z,5.10
2019-05-10T00:50:26.967Z,4.90
2019-05-10T00:51:26.907Z,5.30
2019-05-10T00:52:26.876Z,5.30
2019-05-10T00:53:26.860Z,5.00
2019-05-10T00:54:26.890Z,5.40
2019-05-10T00:55:26.797Z,5.00
2019-05-10T00:56:26.807Z,5.40
2019-05-10T00:57:26.748Z,5.10
2019-05-10T00:58:26.717Z,5.20
2019-05-10T00:59:26.717Z,5.50
2019-05-10T01:00:26.657Z,5.30
2019-05-10T01:01:26.738Z,5.20
2019-05-10T01:02:26.620Z,5.00
2019-05-10T01:03:26.587Z,5.10
2019-05-10T01:04:26.658Z,4.90
2019-05-10T01:05:26.537Z,5.10
2019-05-10T01:06:26.566Z,5.50
2019-05-10T01:07:26.483Z,5.20
2019-05-10T01:08:26.449Z,5.00
2019-05-10T01:09:26.429Z,5.00
2019-05-10T01:10:26.496Z,5.40
2019-05-10T01:11:26.368Z,5.40
2019-05-10T01:12:26.406Z,5.40
2019-05-10T01:13:26.318Z,5.00
2019-05-10T01:14:26.287Z,5.20
2019-05-10T01:15:26.256Z,5.40
2019-05-10T01:16:26.327Z,5.40
2019-05-10T01:17:26.206Z,5.50
2019-05-10T01:18:26.253Z,4.90
2019-05-10T01:19:26.158Z,4.70
2019-05-10T01:20:26.158Z,5.20
2019-05-10T01:21:26.114Z,4.90
2019-05-10T01:22:26.168Z,4.60
2019-05-10T01:23:26.050Z,4.90
2019-05-10T01:24:26.077Z,4.90
2019-05-10T01:25:34.785Z,5.40
2019-05-10T01:26:25.967Z,5.10
2019-05-10T01:27:25.995Z,5.20
2019-05-10T01:28:25.918Z,5.20
2019-05-10T01:29:25.947Z,5.40
2019-05-10T01:30:25.950Z,5.40
2019-05-10T01:31:25.837Z,5.20
2019-05-10T01:32:25.826Z,5.20
2019-05-10T01:33:25.777Z,5.00
2019-05-10T01:34:25.849Z,5.00
2019-05-10T01:35:25.725Z,5.50
2019-05-10T01:36:25.700Z,5.30
2019-05-10T01:37:25.772Z,5.70
2019-05-10T01:38:25.648Z,5.20
2019-05-10T01:39:25.680Z,5.30
2019-05-10T01:40:25.598Z,5.30
2019-05-10T01:41:25.567Z,5.50
2019-05-10T01:42:25.537Z,5.50
2019-05-10T01:43:25.601Z,5.30
2019-05-10T01:44:25.489Z,5.50
2019-05-10T01:45:25.518Z,5.20
2019-05-10T01:46:25.441Z,5.40
2019-05-10T01:47:25.418Z,5.10
2019-05-10T01:48:25.425Z,5.10
2019-05-10T01:49:25.360Z,5.50
2019-05-10T01:50:25.348Z,5.40
2019-05-10T01:51:27.808Z,5.00
2019-05-10T01:52:25.267Z,5.60
2019-05-10T01:53:25.236Z,5.20
2019-05-10T01:54:25.271Z,5.10
2019-05-10T01:55:25.198Z,5.10
2019-05-10T01:56:25.178Z,5.30
2019-05-10T01:57:25.136Z,5.80
2019-05-10T01:58:25.200Z,5.40
2019-05-10T01:59:25.076Z,5.40
2019-05-10T02:00:25.126Z,5.50
2019-05-10T02:01:25.027Z,5.00
2019-05-10T02:02:25.023Z,5.50
2019-05-10T02:03:24.980Z,5.40
2019-05-10T02:04:25.039Z,5.70
2019-05-10T02:05:24.925Z,6.00
2019-05-10T02:06:24.954Z,5.30
2019-05-10T02:07:24.877Z,5.80
2019-05-10T02:08:24.839Z,5.60
2019-05-10T02:09:24.819Z,5.80
2019-05-10T02:10:24.867Z,5.50
2019-05-10T02:11:24.772Z,5.90
2019-05-10T02:12:24.798Z,5.80
2019-05-10T02:13:24.706Z,6.00
2019-05-10T02:14:24.684Z,6.40
2019-05-10T02:15:24.699Z,6.00
2019-05-10T02:16:24.622Z,6.20
2019-05-10T02:17:24.797Z,5.70
2019-05-10T02:18:24.594Z,5.80
2019-05-10T02:19:24.545Z,6.10
2019-05-10T02:20:24.517Z,5.90
2019-05-10T02:21:24.547Z,6.00
2019-05-10T02:22:24.468Z,6.80
2019-05-10T02:23:24.556Z,6.70
2019-05-10T02:24:24.418Z,6.40
2019-05-10T02:25:24.390Z,6.40
2019-05-10T02:26:24.490Z,6.40
2019-05-10T02:27:24.336Z,6.70
2019-05-10T02:28:24.392Z,6.10
2019-05-10T02:29:24.278Z,6.50
2019-05-10T02:30:24.258Z,6.70
2019-05-10T02:31:24.220Z,6.60
2019-05-10T02:32:24.222Z,6.40
2019-05-10T02:33:24.168Z,6.80
2019-05-10T02:34:24.236Z,7.10
2019-05-10T02:35:24.117Z,6.80
2019-05-10T02:36:24.138Z,6.70
2019-05-10T02:37:24.069Z,6.70
2019-05-10T02:38:24.115Z,6.80
2019-05-10T02:39:24.008Z,6.50
2019-05-10T02:40:24.061Z,6.50
2019-05-10T02:41:24.066Z,6.50
2019-05-10T02:42:23.929Z,6.60
2019-05-10T02:43:23.979Z,6.70
2019-05-10T02:44:23.884Z,6.30
2019-05-10T02:45:23.900Z,6.50
2019-05-10T02:46:23.830Z,6.60
2019-05-10T02:47:23.913Z,6.30
2019-05-10T02:48:23.769Z,6.30
2019-05-10T02:49:23.819Z,6.70
2019-05-10T02:50:23.728Z,6.90
2019-05-10T02:51:23.731Z,7.20
2019-05-10T02:52:23.670Z,7.10
2019-05-10T02:53:23.748Z,7.00
2019-05-10T02:54:23.618Z,7.10
2019-05-10T02:55:23.658Z,7.70
2019-05-10T02:56:30.359Z,7.50
2019-05-10T02:57:23.516Z,7.50
2019-05-10T02:58:23.497Z,8.10
2019-05-10T02:59:23.587Z,7.80
2019-05-10T03:00:23.453Z,8.70
2019-05-10T03:01:23.490Z,8.20
2019-05-10T03:02:23.399Z,8.00
2019-05-10T03:03:23.368Z,8.60
2019-05-10T03:04:23.409Z,8.80
2019-05-10T03:05:23.318Z,9.00
2019-05-10T03:06:23.325Z,8.50
2019-05-10T03:07:23.261Z,9.10
2019-05-10T03:08:23.239Z,9.60
2019-05-10T03:09:23.201Z,9.60
2019-05-10T03:10:23.258Z,10.00
2019-05-10T03:11:23.154Z,10.10
2019-05-10T03:12:23.160Z,9.60
2019-05-10T03:13:27.033Z,9.80
2019-05-10T03:14:23.077Z,9.70
2019-05-10T03:15:23.079Z,9.70
2019-05-10T03:16:23.033Z,10.00
2019-05-10T03:17:23.098Z,10.60
2019-05-10T03:18:22.966Z,10.60
2019-05-10T03:19:22.938Z,10.20
2019-05-10T03:20:23.063Z,10.70
2019-05-10T03:21:22.882Z,10.40
2019-05-10T03:22:22.929Z,11.30
2019-05-10T03:23:22.836Z,10.90
2019-05-10T03:24:27.582Z,10.70
2019-05-10T03:25:22.787Z,10.90
2019-05-10T03:26:22.847Z,10.90
2019-05-10T03:27:22.729Z,11.10
2019-05-10T03:28:22.768Z,11.80
2019-05-10T03:29:22.661Z,11.50
2019-05-10T03:30:22.628Z,11.50
2019-05-10T03:31:22.613Z,11.90
2019-05-10T03:32:22.688Z,12.00
2019-05-10T03:33:22.560Z,11.40
2019-05-10T03:34:22.600Z,11.80
2019-05-10T03:35:22.519Z,11.20
2019-05-10T03:36:22.507Z,11.60
2019-05-10T03:37:22.439Z,11.90
2019-05-10T03:38:22.527Z,11.10
2019-05-10T03:39:22.389Z,11.50
2019-05-10T03:40:22.460Z,11.80
2019-05-10T03:41:22.330Z,12.10
2019-05-10T03:42:22.360Z,11.60
2019-05-10T03:43:22.279Z,11.80
2019-05-10T03:44:22.367Z,12.20
2019-05-10T03:45:22.218Z,11.40
2019-05-10T03:46:22.197Z,12.00
2019-05-10T03:47:22.179Z,11.80
2019-05-10T03:48:22.200Z,11.30
2019-05-10T03:49:22.118Z,11.50
2019-05-10T03:50:22.234Z,12.10
2019-05-10T03:51:22.061Z,11.30
2019-05-10T03:52:22.139Z,11.50
2019-05-10T03:53:22.051Z,12.20
2019-05-10T03:54:22.028Z,11.50
2019-05-10T03:55:21.962Z,11.80
2019-05-10T03:56:22.060Z,11.30
2019-05-10T03:57:21.900Z,11.00
2019-05-10T03:58:21.963Z,11.20
2019-05-10T03:59:21.850Z,12.10
2019-05-10T04:00:21.958Z,11.10
2019-05-10T04:01:21.797Z,11.80
2019-05-10T04:02:21.767Z,11.50
2019-05-10T04:03:21.741Z,11.60
2019-05-10T04:04:21.811Z,11.10
2019-05-10T04:05:21.688Z,11.40
2019-05-10T04:06:21.827Z,11.20
2019-05-10T04:07:21.646Z,11.30
2019-05-10T04:08:21.610Z,11.40
2019-05-10T04:09:21.626Z,11.10
2019-05-10T04:10:21.572Z,11.30
2019-05-10T04:11:21.638Z,12.00
2019-05-10T04:12:21.496Z,10.90
2019-05-10T04:13:21.473Z,11.00
2019-05-10T04:14:21.448Z,11.40
2019-05-10T04:15:21.569Z,11.00
2019-05-10T04:16:21.400Z,11.50
2019-05-10T04:17:21.491Z,10.80
2019-05-10T04:18:21.330Z,10.90
2019-05-10T04:19:21.438Z,11.50
2019-05-10T04:20:21.281Z,11.00
2019-05-10T04:21:21.398Z,11.40
2019-05-10T04:22:21.232Z,11.80
2019-05-10T04:23:21.318Z,10.70
2019-05-10T04:24:21.327Z,11.10
2019-05-10T04:25:21.157Z,10.80
2019-05-10T04:26:21.245Z,11.50
2019-05-10T04:27:31.259Z,11.40
2019-05-10T04:28:21.070Z,11.20
2019-05-10T04:29:21.179Z,11.30
2019-05-10T04:30:21.011Z,11.20
2019-05-10T04:31:21.073Z,11.60
2019-05-10T04:32:20.973Z,11.50
2019-05-10T04:33:21.079Z,11.60
2019-05-10T04:34:20.886Z,11.30
2019-05-10T04:35:20.875Z,11.70
2019-05-10T04:36:21.001Z,11.30
2019-05-10T04:37:20.821Z,11.70
2019-05-10T04:38:20.808Z,11.10
2019-05-10T04:39:20.760Z,12.20
2019-05-10T04:40:20.733Z,11.80
2019-05-10T04:41:20.706Z,12.20
2019-05-10T04:42:20.729Z,11.90
2019-05-10T04:43:20.643Z,11.70
2019-05-10T04:44:20.641Z,12.40
2019-05-10T04:45:20.594Z,12.30
2019-05-10T04:46:20.656Z,12.40
2019-05-10T04:47:20.548Z,12.40
2019-05-10T04:48:20.568Z,13.80
2019-05-10T04:49:20.486Z,12.90
2019-05-10T04:50:20.479Z,13.10
2019-05-10T04:51:20.472Z,13.60
2019-05-10T04:52:20.502Z,13.50
2019-05-10T04:53:20.370Z,13.20
2019-05-10T04:54:20.409Z,14.20
2019-05-10T04:55:20.317Z,14.60
2019-05-10T04:56:20.289Z,14.20
2019-05-10T04:57:20.266Z,15.30
2019-05-10T04:58:20.329Z,14.30
2019-05-10T04:59:20.212Z,15.60
2019-05-10T05:00:20.252Z,16.10
2019-05-10T05:01:20.158Z,15.50
2019-05-10T05:02:22.175Z,15.50
2019-05-10T05:03:20.107Z,15.90
2019-05-10T05:04:20.174Z,15.90
2019-05-10T05:05:20.040Z,15.90
2019-05-10T05:06:20.077Z,16.10
2019-05-10T05:07:19.998Z,16.00
2019-05-10T05:08:19.988Z,16.20
2019-05-10T05:09:19.938Z,16.70
2019-05-10T05:10:20.057Z,16.50
2019-05-10T05:11:19.879Z,16.80
2019-05-10T05:12:19.851Z,17.10
2019-05-10T05:13:19.839Z,17.60
2019-05-10T05:14:19.834Z,17.30
2019-05-10T05:15:19.777Z,17.80
2019-05-10T05:16:19.848Z,17.40
2019-05-10T05:17:19.727Z,17.90
2019-05-10T05:18:19.761Z,17.70
2019-05-10T05:19:19.667Z,17.70
2019-05-10T05:20:19.678Z,17.60
2019-05-10T05:21:19.618Z,17.80
2019-05-10T05:22:19.687Z,17.40
2019-05-10T05:23:19.556Z,17.00
2019-05-10T05:24:23.087Z,16.30
2019-05-10T05:25:21.989Z,16.00
2019-05-10T05:26:19.505Z,16.70
2019-05-10T05:27:19.448Z,16.20
2019-05-10T05:28:23.371Z,16.40
2019-05-10T05:29:19.430Z,15.60
2019-05-10T05:30:19.370Z,15.70
2019-05-10T05:31:19.437Z,16.60
2019-05-10T05:32:19.318Z,15.80
2019-05-10T05:33:19.297Z,16.30
2019-05-10T05:34:19.259Z,16.60
2019-05-10T05:35:19.256Z,15.50
2019-05-10T05:36:19.210Z,15.70
2019-05-10T05:37:19.279Z,16.20
2019-05-10T05:38:19.157Z,15.60
2019-05-10T05:39:19.189Z,15.60
2019-05-10T05:40:19.097Z,14.70
2019-05-10T05:41:19.110Z,15.10
2019-05-10T05:42:22.220Z,15.40
2019-05-10T05:43:19.032Z,15.30
2019-05-10T05:44:20.231Z,15.10
2019-05-10T05:45:19.028Z,14.80
2019-05-10T05:46:18.938Z,15.10
2019-05-10T05:47:18.935Z,15.30
2019-05-10T05:48:21.366Z,15.90
2019-05-10T05:49:18.858Z,16.00
2019-05-10T05:50:18.859Z,15.30
2019-05-10T05:51:18.810Z,14.60
2019-05-10T05:52:18.868Z,14.90
2019-05-10T05:53:22.249Z,14.00
2019-05-10T05:54:20.684Z,15.30
2019-05-10T05:55:22.718Z,14.40
2019-05-10T05:56:18.697Z,14.90
2019-05-10T05:57:22.274Z,13.90
2019-05-10T05:58:26.627Z,15.10
2019-05-10T05:59:24.032Z,14.30
2019-05-10T06:00:18.568Z,14.90
2019-05-10T06:01:26.124Z,14.40
2019-05-10T06:02:18.527Z,14.40
2019-05-10T06:03:27.564Z,14.30
2019-05-10T06:04:18.467Z,14.60
2019-05-10T06:05:32.913Z,15.10
2019-05-10T06:06:21.502Z,14.80
2019-05-10T06:07:18.468Z,15.00
2019-05-10T06:08:23.183Z,15.00
2019-05-10T06:09:18.393Z,15.40
2019-05-10T06:10:19.768Z,15.30
2019-05-10T06:11:18.276Z,16.00
2019-05-10T06:12:18.396Z,16.90
2019-05-10T06:13:23.231Z,15.90
2019-05-10T06:14:18.197Z,16.50
2019-05-10T06:15:23.142Z,15.80
2019-05-10T06:16:18.151Z,16.40
2019-05-10T06:17:18.245Z,16.50
2019-05-10T06:18:18.099Z,15.20
2019-05-10T06:19:20.467Z,16.40
2019-05-10T06:20:18.039Z,16.40
2019-05-10T06:21:24.521Z,16.70
2019-05-10T06:22:17.983Z,16.80
2019-05-10T06:23:18.076Z,16.50
2019-05-10T06:24:17.928Z,16.50
2019-05-10T06:25:17.988Z,15.70
2019-05-10T06:26:26.696Z,17.60
2019-05-10T06:27:17.864Z,17.60
2019-05-10T06:28:26.863Z,18.10
2019-05-10T06:29:19.741Z,17.50
2019-05-10T06:30:17.915Z,18.50
2019-05-10T06:31:17.733Z,18.70
2019-05-10T06:32:17.837Z,19.10
2019-05-10T06:33:17.697Z,18.60
2019-05-10T06:34:17.735Z,19.30
2019-05-10T06:35:19.587Z,18.80
2019-05-10T06:36:17.620Z,19.10
2019-05-10T06:37:17.588Z,18.70
2019-05-10T06:38:17.678Z,19.20
2019-05-10T06:39:17.541Z,19.30
2019-05-10T06:40:17.681Z,18.90
2019-05-10T06:41:19.252Z,19.10
2019-05-10T06:42:17.587Z,19.50
2019-05-10T06:43:17.429Z,19.10
2019-05-10T06:44:17.497Z,19.20
2019-05-10T06:45:17.379Z,18.70
2019-05-10T06:46:17.518Z,19.70
2019-05-10T06:47:17.327Z,19.60
2019-05-10T06:48:25.962Z,20.30
2019-05-10T06:49:17.276Z,20.10
2019-05-10T06:50:17.339Z,20.20
2019-05-10T06:51:17.217Z,19.90
2019-05-10T06:52:21.990Z,21.20
2019-05-10T06:53:17.168Z,21.20
2019-05-10T06:54:17.267Z,20.60
2019-05-10T06:55:17.121Z,21.50
2019-05-10T06:56:17.179Z,21.20
2019-05-10T06:57:18.081Z,20.10
2019-05-10T06:58:17.199Z,20.00
2019-05-10T06:59:19.433Z,20.80
2019-05-10T07:00:17.107Z,21.70
2019-05-10T07:01:16.959Z,20.70
2019-05-10T07:02:20.077Z,21.60
2019-05-10T07:03:16.903Z,21.40
2019-05-10T07:04:17.028Z,22.20
2019-05-10T07:05:16.856Z,21.60
2019-05-10T07:06:16.941Z,20.80
2019-05-10T07:07:33.006Z,21.40
2019-05-10T07:08:20.346Z,20.70
2019-05-10T07:09:16.862Z,18.90
2019-05-10T07:10:19.477Z,17.60
2019-05-10T07:11:16.698Z,17.00
2019-05-10T07:12:18.431Z,17.30
2019-05-10T07:13:16.647Z,15.40
2019-05-10T07:14:16.792Z,15.70
2019-05-10T07:15:16.598Z,16.40
2019-05-10T07:16:24.018Z,15.70
2019-05-10T07:17:16.560Z,15.50
2019-05-10T07:18:22.424Z,16.40
2019-05-10T07:19:16.497Z,15.60
2019-05-10T07:20:16.636Z,16.50
2019-05-10T07:21:16.445Z,15.90
2019-05-10T07:22:21.903Z,15.90
2019-05-10T07:23:16.394Z,15.00
2019-05-10T07:24:18.328Z,14.10
2019-05-10T07:25:16.355Z,15.30
2019-05-10T07:26:17.697Z,13.20
2019-05-10T07:27:16.278Z,12.30
2019-05-10T07:28:17.722Z,12.20
2019-05-10T07:29:29.059Z,12.00
2019-05-10T07:30:16.207Z,13.10
2019-05-10T07:31:16.298Z,13.30
2019-05-10T07:32:21.241Z,13.70
2019-05-10T07:33:16.312Z,12.60
2019-05-10T07:34:17.636Z,13.10
2019-05-10T07:35:16.078Z,12.50
2019-05-10T07:36:20.883Z,13.10
2019-05-10T07:37:16.028Z,14.00
2019-05-10T07:38:16.156Z,14.10
2019-05-10T07:39:15.983Z,14.20
2019-05-10T07:40:15.947Z,12.50
2019-05-10T07:41:19.483Z,10.50
2019-05-10T07:42:15.898Z,10.20
2019-05-10T07:43:24.695Z,10.30
2019-05-10T07:44:15.847Z,10.70
2019-05-10T07:45:18.798Z,10.40
2019-05-10T07:46:15.798Z,9.90
2019-05-10T07:47:15.897Z,9.60
2019-05-10T07:48:15.748Z,10.90
2019-05-10T07:49:15.825Z,10.90
2019-05-10T07:50:15.701Z,11.00
2019-05-10T07:51:15.735Z,10.80
2019-05-10T07:52:15.646Z,11.10
2019-05-10T07:53:16.358Z,11.70
2019-05-10T07:54:15.600Z,11.70
2019-05-10T07:55:18.571Z,11.90
2019-05-10T07:56:15.639Z,11.20
2019-05-10T07:57:18.650Z,11.70
2019-05-10T07:58:15.514Z,11.00
2019-05-10T07:59:16.423Z,10.70
2019-05-10T08:00:15.458Z,11.00
2019-05-10T08:01:15.418Z,10.90
2019-05-10T08:02:15.398Z,10.40
2019-05-10T08:03:17.726Z,9.80
2019-05-10T08:04:19.882Z,10.20
2019-05-10T08:05:15.526Z,8.80
2019-05-10T08:06:15.684Z,8.40
2019-05-10T08:07:15.289Z,8.40
2019-05-10T08:08:15.338Z,7.80
2019-05-10T08:09:15.230Z,8.00
2019-05-10T08:10:15.248Z,8.20
2019-05-10T08:11:15.183Z,8.30
2019-05-10T08:12:15.157Z,8.00
2019-05-10T08:13:20.026Z,8.30
2019-05-10T08:14:15.101Z,7.90
2019-05-10T08:15:15.177Z,7.80
2019-05-10T08:16:21.826Z,8.00
2019-05-10T08:17:15.028Z,7.90
2019-05-10T08:18:15.352Z,8.50
2019-05-10T08:19:14.980Z,8.70
2019-05-10T08:20:28.102Z,8.00
2019-05-10T08:21:21.757Z,8.60
2019-05-10T08:22:14.963Z,8.20
2019-05-10T08:23:18.009Z,8.90
2019-05-10T08:24:16.692Z,9.10
2019-05-10T08:25:15.317Z,8.90
2019-05-10T08:26:20.322Z,9.70
2019-05-10T08:27:15.048Z,8.80
2019-05-10T08:28:14.760Z,8.80
2019-05-10T08:29:16.947Z,8.10
2019-05-10T08:30:25.449Z,8.60
2019-05-10T08:31:14.678Z,8.60
2019-05-10T08:32:14.812Z,8.80
2019-05-10T08:33:14.899Z,8.40
2019-05-10T08:34:14.724Z,8.30
2019-05-10T08:35:17.400Z,8.00
2019-05-10T08:36:14.717Z,7.90
2019-05-10T08:37:19.447Z,8.00
2019-05-10T08:38:14.509Z,8.10
2019-05-10T08:39:14.492Z,8.10
2019-05-10T08:40:14.466Z,8.30
2019-05-10T08:41:18.134Z,8.70
2019-05-10T08:42:34.305Z,8.60
2019-05-10T08:43:16.774Z,8.10
2019-05-10T08:44:19.492Z,7.60
2019-05-10T08:45:14.471Z,8.10
2019-05-10T08:46:14.308Z,8.00
2019-05-10T08:47:22.363Z,7.70
2019-05-10T08:48:14.272Z,7.90
2019-05-10T08:49:14.398Z,7.20
2019-05-10T08:50:29.375Z,7.00
2019-05-10T08:51:14.309Z,7.40
2019-05-10T08:52:14.168Z,7.20
2019-05-10T08:53:16.410Z,7.70
2019-05-10T08:54:14.117Z,8.00
2019-05-10T08:55:14.097Z,7.40
2019-05-10T08:56:20.798Z,7.30
2019-05-10T08:57:18.619Z,8.00
2019-05-10T08:58:14.156Z,7.80
2019-05-10T08:59:16.332Z,7.80
2019-05-10T09:00:13.965Z,8.10
2019-05-10T09:01:26.147Z,7.90
2019-05-10T09:02:14.617Z,8.30
2019-05-10T09:03:18.533Z,8.00
2019-05-10T09:04:13.936Z,8.40
2019-05-10T09:05:13.996Z,8.50
2019-05-10T09:06:16.689Z,8.40
2019-05-10T09:07:13.910Z,8.20
2019-05-10T09:08:19.838Z,8.20
2019-05-10T09:09:13.927Z,8.20
2019-05-10T09:10:13.716Z,8.40
2019-05-10T09:11:16.238Z,8.00
2019-05-10T09:12:13.895Z,7.50
2019-05-10T09:13:13.720Z,7.30
2019-05-10T09:14:19.774Z,8.00
2019-05-10T09:15:13.896Z,7.90
2019-05-10T09:16:13.747Z,7.60
2019-05-10T09:17:14.863Z,7.10
2019-05-10T09:18:13.539Z,7.30
2019-05-10T09:19:13.686Z,7.90
2019-05-10T09:20:20.767Z,7.30
2019-05-10T09:21:14.234Z,7.60
2019-05-10T09:22:13.428Z,7.50
2019-05-10T09:23:19.908Z,7.70
2019-05-10T09:24:13.404Z,7.20
2019-05-10T09:25:13.526Z,6.50
2019-05-10T09:26:16.508Z,7.00
2019-05-10T09:27:13.324Z,7.30
2019-05-10T09:28:16.708Z,7.40
2019-05-10T09:29:13.456Z,7.30
2019-05-10T09:30:18.122Z,7.40
2019-05-10T09:31:21.267Z,7.50
2019-05-10T09:32:13.186Z,7.60
2019-05-10T09:33:14.458Z,8.20
2019-05-10T09:34:13.277Z,8.10
2019-05-10T09:35:13.166Z,8.30
2019-05-10T09:36:13.305Z,8.80
2019-05-10T09:37:16.469Z,8.20
2019-05-10T09:38:13.047Z,8.90
2019-05-10T09:39:17.672Z,8.60
2019-05-10T09:40:13.641Z,9.00
2019-05-10T09:41:13.133Z,9.10
2019-05-10T09:42:25.148Z,8.80
2019-05-10T09:43:14.975Z,9.00
2019-05-10T09:44:13.179Z,8.50
2019-05-10T09:45:13.285Z,8.30
2019-05-10T09:46:14.169Z,9.20
2019-05-10T09:47:12.817Z,8.90
2019-05-10T09:48:12.976Z,9.20
2019-05-10T09:49:17.766Z,9.40
2019-05-10T09:50:12.915Z,9.40
2019-05-10T09:51:13.696Z,8.80
2019-05-10T09:52:14.946Z,8.70
2019-05-10T09:53:15.324Z,8.10
2019-05-10T09:54:12.707Z,8.40
2019-05-10T09:55:14.782Z,7.90
2019-05-10T09:56:12.717Z,7.90
2019-05-10T09:57:12.590Z,7.70
2019-05-10T09:58:12.641Z,7.80
2019-05-10T09:59:12.516Z,7.50
2019-05-10T10:00:12.497Z,7.80
2019-05-10T10:01:17.981Z,7.90
2019-05-10T10:02:18.259Z,8.50
2019-05-10T10:03:13.103Z,8.10
2019-05-10T10:04:12.398Z,8.20
2019-05-10T10:05:12.388Z,8.70
2019-05-10T10:06:12.347Z,9.10
2019-05-10T10:07:12.386Z,9.70
2019-05-10T10:08:12.296Z,10.50
2019-05-10T10:09:12.408Z,10.40
2019-05-10T10:10:20.748Z,11.20
2019-05-10T10:11:15.714Z,12.80
2019-05-10T10:12:12.318Z,12.40
2019-05-10T10:13:13.999Z,12.50
2019-05-10T10:14:12.240Z,11.60
2019-05-10T10:15:18.800Z,12.60
2019-05-10T10:16:14.759Z,14.30
2019-05-10T10:17:12.145Z,15.40
2019-05-10T10:18:12.742Z,14.50
2019-05-10T10:19:12.066Z,14.80
2019-05-10T10:20:11.999Z,15.90
2019-05-10T10:21:13.254Z,14.50
2019-05-10T10:22:13.286Z,14.60
2019-05-10T10:23:11.985Z,14.20
2019-05-10T10:24:17.387Z,15.20
2019-05-10T10:25:12.006Z,14.80
2019-05-10T10:26:12.581Z,15.20
2019-05-10T10:27:11.827Z,13.40
2019-05-10T10:28:17.061Z,13.80
2019-05-10T10:29:11.776Z,13.80
2019-05-10T10:30:14.970Z,13.50
2019-05-10T10:31:25.051Z,12.50
2019-05-10T10:32:11.714Z,11.90
2019-05-10T10:33:17.757Z,12.40
2019-05-10T10:34:11.657Z,12.30
2019-05-10T10:35:16.282Z,12.60
2019-05-10T10:36:11.615Z,11.20
2019-05-10T10:37:14.683Z,11.60
2019-05-10T10:38:11.712Z,10.90
2019-05-10T10:39:11.528Z,11.00
2019-05-10T10:40:14.970Z,11.10
2019-05-10T10:41:11.493Z,10.50
2019-05-10T10:42:13.205Z,9.40
2019-05-10T10:43:11.434Z,9.90
2019-05-10T10:44:11.531Z,9.10
2019-05-10T10:45:11.375Z,9.20
2019-05-10T10:46:12.534Z,9.60
2019-05-10T10:47:11.328Z,9.00
2019-05-10T10:48:12.910Z,8.60
2019-05-10T10:49:14.336Z,8.90
2019-05-10T10:50:13.458Z,9.00
2019-05-10T10:51:11.367Z,8.50
2019-05-10T10:52:13.368Z,8.70
2019-05-10T10:53:11.285Z,7.60
2019-05-10T10:54:11.285Z,8.00
2019-05-10T10:55:13.309Z,7.60
2019-05-10T10:56:11.197Z,8.20
2019-05-10T10:57:11.075Z,7.80
2019-05-10T10:58:11.221Z,7.50
2019-05-10T10:59:11.037Z,7.10
2019-05-10T11:00:11.005Z,7.80
2019-05-10T11:01:21.405Z,7.10
2019-05-10T11:02:32.870Z,7.40
2019-05-10T11:03:10.936Z,7.20
2019-05-10T11:04:10.945Z,6.60
2019-05-10T11:05:10.957Z,6.80
2019-05-10T11:06:10.869Z,7.00
2019-05-10T11:07:11.261Z,6.80
2019-05-10T11:08:11.245Z,7.00
2019-05-10T11:09:10.889Z,7.30
2019-05-10T11:10:17.875Z,7.00
2019-05-10T11:11:10.737Z,7.00
2019-05-10T11:12:14.630Z,6.90
2019-05-10T11:13:18.575Z,7.30
2019-05-10T11:14:11.192Z,7.20
2019-05-10T11:15:11.400Z,7.30
2019-05-10T11:16:15.430Z,7.70
2019-05-10T11:17:11.174Z,8.00
2019-05-10T11:18:10.557Z,8.10
2019-05-10T11:19:15.290Z,7.90
2019-05-10T11:20:11.479Z,7.80
2019-05-10T11:21:11.296Z,8.10
2019-05-10T11:22:10.999Z,7.90
2019-05-10T11:23:10.797Z,8.20
2019-05-10T11:24:18.247Z,7.60
2019-05-10T11:25:12.681Z,7.60
2019-05-10T11:26:10.939Z,8.20
2019-05-10T11:27:13.122Z,7.20
2019-05-10T11:28:12.037Z,7.70
2019-05-10T11:29:14.238Z,7.90
2019-05-10T11:30:12.112Z,7.10
2019-05-10T11:31:11.353Z,7.20
2019-05-10T11:32:15.882Z,6.80
2019-05-10T11:33:23.846Z,7.10
2019-05-10T11:34:10.156Z,6.60
2019-05-10T11:35:12.012Z,6.40
2019-05-10T11:36:11.479Z,7.00
2019-05-10T11:37:10.077Z,6.80
2019-05-10T11:38:14.520Z,6.00
2019-05-10T11:39:24.773Z,6.30
2019-05-10T11:40:11.332Z,5.20
2019-05-10T11:41:13.521Z,5.60
2019-05-10T11:42:11.456Z,5.90
2019-05-10T11:43:09.938Z,6.00
2019-05-10T11:44:12.038Z,6.20
2019-05-10T11:45:11.107Z,5.80
2019-05-10T11:46:11.768Z,6.40
2019-05-10T11:47:22.970Z,6.30
2019-05-10T11:48:10.863Z,6.50
2019-05-10T11:49:10.694Z,6.20
2019-05-10T11:50:10.678Z,6.80
2019-05-10T11:52:12.909Z,6.10
2019-05-10T11:53:13.206Z,5.10
2019-05-10T11:54:11.152Z,5.10
2019-05-10T11:55:11.467Z,5.70
2019-05-10T11:56:14.143Z,5.90
2019-05-10T11:57:13.354Z,6.20
2019-05-10T11:58:12.979Z,6.10
2019-05-10T11:59:05.172Z,6.60
2019-05-10T11:59:12.359Z,6.00
2019-05-10T12:00:14.238Z,6.00
2019-05-10T12:01:17.344Z,5.70
2019-05-10T12:02:10.650Z,5.80
2019-05-10T12:03:15.515Z,5.80
2019-05-10T12:05:16.801Z,6.40
2019-05-10T12:06:12.213Z,6.20
2019-05-10T12:08:12.689Z,5.90
2019-05-10T12:09:12.525Z,5.90
2019-05-10T12:10:18.351Z,5.90
2019-05-10T12:11:24.929Z,6.30
2019-05-10T12:12:12.302Z,6.50
2019-05-10T12:13:18.533Z,5.70
2019-05-10T12:14:13.554Z,5.30
2019-05-10T12:15:13.514Z,5.40
2019-05-10T12:16:12.358Z,5.50
2019-05-10T12:17:13.846Z,5.80
2019-05-10T12:18:13.914Z,5.80
2019-05-10T12:19:17.111Z,5.10
2019-05-10T12:20:12.650Z,5.40
2019-05-10T12:21:11.054Z,5.40
2019-05-10T12:22:15.423Z,5.10
2019-05-10T12:24:26.029Z,5.50
2019-05-10T12:26:31.059Z,6.10
2019-05-10T12:26:47.918Z,5.00
2019-05-10T12:26:50.504Z,6.10
2019-05-10T12:26:58.486Z,5.20
2019-05-10T12:27:13.035Z,5.40
2019-05-10T12:27:24.779Z,5.90
2019-05-10T12:28:08.911Z,5.90
2019-05-10T12:29:13.521Z,5.60
2019-05-10T12:30:11.482Z,5.50
2019-05-10T12:31:15.189Z,5.30
2019-05-10T12:32:10.448Z,5.70
2019-05-10T12:33:12.395Z,5.30
2019-05-10T12:34:13.976Z,5.00
2019-05-10T12:35:08.839Z,4.50
2019-05-10T12:36:13.471Z,4.90
2019-05-10T12:37:08.718Z,5.60
2019-05-10T12:38:11.195Z,5.20
2019-05-10T12:39:08.666Z,4.70
2019-05-10T12:40:11.941Z,5.10
2019-05-10T12:41:08.626Z,5.10
2019-05-10T12:42:13.985Z,5.30
2019-05-10T12:43:10.997Z,5.30
2019-05-10T12:44:08.567Z,5.30
2019-05-10T12:45:08.599Z,5.60
2019-05-10T12:46:10.506Z,5.70
2019-05-10T12:47:11.189Z,6.30
2019-05-10T12:48:08.517Z,5.90
2019-05-10T12:49:08.457Z,5.50
2019-05-10T12:50:08.532Z,5.40
2019-05-10T12:51:11.871Z,5.60
2019-05-10T12:52:09.196Z,5.30
2019-05-10T12:53:15.503Z,5.00
2019-05-10T12:54:08.345Z,5.60
2019-05-10T12:55:08.358Z,5.80
2019-05-10T12:56:08.306Z,5.10
2019-05-10T12:57:08.376Z,5.60
2019-05-10T12:58:08.255Z,5.70
2019-05-10T12:59:08.297Z,5.80
2019-05-10T13:00:12.979Z,6.00
2019-05-10T13:01:08.305Z,5.90
2019-05-10T13:02:10.884Z,6.10
2019-05-10T13:03:12.832Z,5.90
2019-05-10T13:04:14.891Z,6.20
2019-05-10T13:05:08.132Z,6.30
2019-05-10T13:06:08.166Z,5.80
2019-05-10T13:07:08.079Z,5.60